createdAt,value
2018-01-25T00:00:38.200Z,2.90
2018-01-25T00:03:06.277Z,3.00
2018-01-25T00:05:33.791Z,2.90
2018-01-25T00:08:02.091Z,2.70
2018-01-25T00:10:30.056Z,3.07
2018-01-25T00:13:00.150Z,3.33
2018-01-25T00:15:28.611Z,3.07
2018-01-25T00:20:31.841Z,2.90
2018-01-25T00:23:00.703Z,2.90
2018-01-25T00:25:28.640Z,3.17
2018-01-25T00:27:56.175Z,2.97
2018-01-25T00:30:23.716Z,2.80
2018-01-25T00:32:52.000Z,3.50
2018-01-25T00:35:19.546Z,3.60
2018-01-25T00:37:47.819Z,3.00
2018-01-25T00:40:16.507Z,3.17
2018-01-25T00:42:44.790Z,3.07
2018-01-25T00:45:13.112Z,3.90
2018-01-25T00:47:41.295Z,3.30
2018-01-25T00:50:08.829Z,3.33
2018-01-25T00:52:36.776Z,3.10
2018-01-25T00:55:05.076Z,3.57
2018-01-25T00:57:32.603Z,4.40
2018-01-25T01:00:00.883Z,3.57
2018-01-25T01:02:29.585Z,3.33
2018-01-25T01:04:57.127Z,3.37
2018-01-25T01:07:25.427Z,3.60
2018-01-25T01:09:52.940Z,3.60
2018-01-25T01:12:20.873Z,3.63
2018-01-25T01:14:48.379Z,3.93
2018-01-25T01:17:16.704Z,3.73
2018-01-25T01:19:44.480Z,3.10
2018-01-25T01:22:13.871Z,3.37
2018-01-25T01:24:41.375Z,3.23
2018-01-25T01:27:08.899Z,3.83
2018-01-25T01:29:36.943Z,4.20
2018-01-25T01:32:05.125Z,4.40
2018-01-25T01:34:32.678Z,4.17
2018-01-25T01:37:00.210Z,3.73
2018-01-25T01:39:29.207Z,4.17
2018-01-25T01:41:58.312Z,4.27
2018-01-25T01:44:26.595Z,4.43
2018-01-25T01:46:54.103Z,4.50
2018-01-25T01:49:21.778Z,4.03
2018-01-25T01:51:49.278Z,4.57
2018-01-25T01:54:18.278Z,4.27
2018-01-25T01:56:46.102Z,3.80
2018-01-25T01:59:14.432Z,4.30
2018-01-25T02:01:41.962Z,4.40
2018-01-25T02:04:10.231Z,4.57
2018-01-25T02:06:38.500Z,4.30
2018-01-25T02:09:07.495Z,4.70
2018-01-25T02:11:35.763Z,4.40
2018-01-25T02:14:03.307Z,4.70
2018-01-25T02:16:30.820Z,4.33
2018-01-25T02:18:58.327Z,4.40
2018-01-25T02:21:25.884Z,4.00
2018-01-25T02:23:54.922Z,4.97
2018-01-25T02:26:22.881Z,4.30
2018-01-25T02:28:51.416Z,4.27
2018-01-25T02:31:18.935Z,4.60
2018-01-25T02:33:46.885Z,4.20
2018-01-25T02:36:15.727Z,4.50
2018-01-25T02:38:43.251Z,4.10
2018-01-25T02:41:10.924Z,3.70
2018-01-25T02:43:38.435Z,3.90
2018-01-25T02:46:05.964Z,4.00
2018-01-25T02:48:33.495Z,3.83
2018-01-25T02:51:01.581Z,3.43
2018-01-25T02:53:29.123Z,4.27
2018-01-25T02:55:56.640Z,3.53
2018-01-25T02:58:24.308Z,3.33
2018-01-25T03:00:52.880Z,4.20
2018-01-25T03:03:20.406Z,3.57
2018-01-25T03:05:48.899Z,3.93
2018-01-25T03:08:17.196Z,3.27
2018-01-25T03:10:45.834Z,3.47
2018-01-25T03:13:13.359Z,4.17
2018-01-25T03:15:40.885Z,3.73
2018-01-25T03:18:08.390Z,3.70
2018-01-25T03:20:37.384Z,3.57
2018-01-25T03:23:06.143Z,4.00
2018-01-25T03:25:33.648Z,3.60
2018-01-25T03:28:01.613Z,3.90
2018-01-25T03:30:29.157Z,3.40
2018-01-25T03:32:57.894Z,3.73
2018-01-25T03:35:26.348Z,3.63
2018-01-25T03:37:53.859Z,3.20
2018-01-25T03:40:21.396Z,3.40
2018-01-25T03:42:48.907Z,3.40
2018-01-25T03:45:17.207Z,3.23
2018-01-25T03:47:44.807Z,3.50
2018-01-25T03:50:12.714Z,3.87
2018-01-25T03:52:40.252Z,3.67
2018-01-25T03:55:07.791Z,3.40
2018-01-25T03:57:35.319Z,3.60
2018-01-25T04:00:03.178Z,3.13
2018-01-25T04:02:30.684Z,3.53
2018-01-25T04:04:58.384Z,3.30
2018-01-25T04:07:29.408Z,3.80
2018-01-25T04:09:57.700Z,3.47
2018-01-25T04:12:26.040Z,3.37
2018-01-25T04:14:53.574Z,3.97
2018-01-25T04:17:21.107Z,3.60
2018-01-25T04:19:48.877Z,3.30
2018-01-25T04:22:16.399Z,3.33
2018-01-25T04:24:44.267Z,3.23
2018-01-25T04:27:12.787Z,2.93
2018-01-25T04:29:40.467Z,3.33
2018-01-25T04:32:07.992Z,3.40
2018-01-25T04:34:37.932Z,3.77
2018-01-25T04:37:05.467Z,3.30
2018-01-25T04:39:34.360Z,3.43
2018-01-25T04:42:01.877Z,3.60
2018-01-25T04:44:29.403Z,3.30
2018-01-25T04:46:57.458Z,3.20
2018-01-25T04:49:24.968Z,3.07
2018-01-25T04:51:52.473Z,3.50
2018-01-25T04:54:20.560Z,3.30
2018-01-25T04:56:48.111Z,2.80
2018-01-25T04:59:15.645Z,3.07
2018-01-25T05:01:43.923Z,3.20
2018-01-25T05:04:12.204Z,3.33
2018-01-25T05:06:39.719Z,2.97
2018-01-25T05:09:07.549Z,3.60
2018-01-25T05:11:35.647Z,3.53
2018-01-25T05:14:03.151Z,3.10
2018-01-25T05:16:32.038Z,3.00
2018-01-25T05:19:00.307Z,3.47
2018-01-25T05:21:27.815Z,3.23
2018-01-25T05:23:57.827Z,3.07
2018-01-25T05:26:25.876Z,3.03
2018-01-25T05:28:54.148Z,3.20
2018-01-25T05:31:22.884Z,2.53
2018-01-25T05:33:51.511Z,2.73
2018-01-25T05:36:20.131Z,2.80
2018-01-25T05:38:47.658Z,3.20
2018-01-25T05:41:15.950Z,2.97
2018-01-25T05:43:43.707Z,3.20
2018-01-25T05:46:12.288Z,3.43
2018-01-25T05:48:40.564Z,3.37
2018-01-25T05:51:09.460Z,3.17
2018-01-25T05:53:37.783Z,3.30
2018-01-25T05:56:05.316Z,3.50
2018-01-25T05:58:36.523Z,3.50
2018-01-25T06:01:04.835Z,3.33
2018-01-25T06:03:32.340Z,3.47
2018-01-25T06:06:00.196Z,3.17
2018-01-25T06:08:28.455Z,3.27
2018-01-25T06:10:55.990Z,3.27
2018-01-25T06:13:23.529Z,3.70
2018-01-25T06:15:52.132Z,3.50
2018-01-25T06:18:19.721Z,3.50
2018-01-25T06:20:47.234Z,3.23
2018-01-25T06:23:15.507Z,3.23
2018-01-25T06:25:43.818Z,3.33
2018-01-25T06:28:11.359Z,3.50
2018-01-25T06:30:38.884Z,3.33
2018-01-25T06:33:06.411Z,3.43
2018-01-25T06:35:33.927Z,3.17
2018-01-25T06:38:02.855Z,3.30
2018-01-25T06:40:31.220Z,3.50
2018-01-25T06:42:58.752Z,2.90
2018-01-25T06:45:27.053Z,3.07
2018-01-25T06:47:54.594Z,3.13
2018-01-25T06:50:22.903Z,3.00
2018-01-25T06:52:50.433Z,3.00
2018-01-25T06:55:18.728Z,2.87
2018-01-25T06:57:46.837Z,2.90
2018-01-25T07:00:14.340Z,3.03
2018-01-25T07:02:42.615Z,3.57
2018-01-25T07:05:10.917Z,3.23
2018-01-25T07:07:38.458Z,3.07
2018-01-25T07:10:05.992Z,3.40
2018-01-25T07:12:34.082Z,3.43
2018-01-25T07:15:02.416Z,3.70
2018-01-25T07:17:29.996Z,3.70
2018-01-25T07:19:57.501Z,3.70
2018-01-25T07:22:26.122Z,3.77
2018-01-25T07:24:53.711Z,3.27
2018-01-25T07:27:22.135Z,3.37
2018-01-25T07:29:49.643Z,2.67
2018-01-25T07:32:18.460Z,3.30
2018-01-25T07:34:46.004Z,3.43
2018-01-25T07:37:14.302Z,3.30
2018-01-25T07:39:41.831Z,3.10
2018-01-25T07:42:10.107Z,3.47
2018-01-25T07:44:38.463Z,3.80
2018-01-25T07:47:06.011Z,3.80
2018-01-25T07:49:34.435Z,3.60
2018-01-25T07:52:02.731Z,3.10
2018-01-25T07:54:30.612Z,3.60
2018-01-25T07:56:58.847Z,3.40
2018-01-25T07:59:27.160Z,3.33
2018-01-25T08:01:54.672Z,3.30
2018-01-25T08:04:22.198Z,3.57
2018-01-25T08:06:49.731Z,3.57
2018-01-25T08:09:17.700Z,3.67
2018-01-25T08:11:45.223Z,3.33
2018-01-25T08:14:13.171Z,3.80
2018-01-25T08:16:46.379Z,3.90
2018-01-25T08:19:13.919Z,3.77
2018-01-25T08:21:41.449Z,3.87
2018-01-25T08:24:08.956Z,4.37
2018-01-25T08:26:36.495Z,4.23
2018-01-25T08:29:05.020Z,4.13
2018-01-25T08:31:37.284Z,4.03
2018-01-25T08:34:05.571Z,3.90
2018-01-25T08:36:34.084Z,4.50
2018-01-25T08:39:02.175Z,4.83
2018-01-25T08:41:34.396Z,4.70
2018-01-25T08:44:02.667Z,4.63
2018-01-25T08:46:30.943Z,4.43
2018-01-25T08:48:59.433Z,4.57
2018-01-25T08:51:27.088Z,4.87
2018-01-25T08:53:56.347Z,4.27
2018-01-25T08:56:23.887Z,4.30
2018-01-25T08:58:51.413Z,4.17
2018-01-25T09:01:19.688Z,4.77
2018-01-25T09:03:48.312Z,4.77
2018-01-25T09:06:15.825Z,4.20
2018-01-25T09:08:44.107Z,4.60
2018-01-25T09:11:12.647Z,3.97
2018-01-25T09:13:40.175Z,4.30
2018-01-25T09:16:07.719Z,4.50
2018-01-25T09:18:35.581Z,4.60
2018-01-25T09:21:03.092Z,4.30
2018-01-25T09:23:30.615Z,5.20
2018-01-25T09:25:58.143Z,4.60
2018-01-25T09:28:25.679Z,4.50
2018-01-25T09:30:53.296Z,4.10
2018-01-25T09:33:20.826Z,4.63
2018-01-25T09:35:49.679Z,4.40
2018-01-25T09:38:17.840Z,4.50
2018-01-25T09:40:45.360Z,5.10
2018-01-25T09:43:12.987Z,4.80
2018-01-25T09:45:41.795Z,4.93
2018-01-25T09:48:10.340Z,5.00
2018-01-25T09:50:58.963Z,4.70
2018-01-25T09:53:26.508Z,4.57
2018-01-25T09:55:54.015Z,4.60
2018-01-25T09:58:21.555Z,4.43
2018-01-25T10:00:49.059Z,4.23
2018-01-25T10:03:17.781Z,4.40
2018-01-25T10:05:45.879Z,5.10
2018-01-25T10:08:13.587Z,5.37
2018-01-25T10:10:42.419Z,4.63
2018-01-25T10:13:10.517Z,4.50
2018-01-25T10:15:38.059Z,4.73
2018-01-25T10:18:05.571Z,5.00
2018-01-25T10:20:34.167Z,4.67
2018-01-25T10:23:01.691Z,4.40
2018-01-25T10:25:29.199Z,4.80
2018-01-25T10:27:56.703Z,5.17
2018-01-25T10:30:24.224Z,4.53
2018-01-25T10:32:51.967Z,4.93
2018-01-25T10:35:20.412Z,4.87
2018-01-25T10:37:47.922Z,5.20
2018-01-25T10:40:15.432Z,5.10
2018-01-25T10:42:43.245Z,5.20
2018-01-25T10:45:10.983Z,5.03
2018-01-25T10:47:39.317Z,5.10
2018-01-25T10:50:06.792Z,5.33
2018-01-25T10:52:34.336Z,5.17
2018-01-25T10:55:01.840Z,5.47
2018-01-25T10:57:31.604Z,5.10
2018-01-25T10:59:59.138Z,6.10
2018-01-25T11:02:26.667Z,5.07
2018-01-25T11:04:54.944Z,5.27
2018-01-25T11:07:24.488Z,4.87
2018-01-25T11:09:52.063Z,5.37
2018-01-25T11:12:20.352Z,4.83
2018-01-25T11:14:47.883Z,4.97
2018-01-25T11:17:15.440Z,4.57
2018-01-25T11:19:43.356Z,4.70
2018-01-25T11:22:11.122Z,5.33
2018-01-25T11:24:39.206Z,4.93
2018-01-25T11:27:08.443Z,4.40
2018-01-25T11:29:36.000Z,4.83
2018-01-25T11:32:03.863Z,4.60
2018-01-25T11:34:31.482Z,5.13
2018-01-25T11:36:59.791Z,4.70
2018-01-25T11:39:27.873Z,4.97
2018-01-25T11:41:55.747Z,4.87
2018-01-25T11:44:23.283Z,4.80
2018-01-25T11:46:50.807Z,4.80
2018-01-25T11:49:18.316Z,4.90
2018-01-25T11:51:45.831Z,5.47
2018-01-25T11:54:13.371Z,4.80
2018-01-25T11:56:40.903Z,5.00
2018-01-25T11:59:08.449Z,5.27
2018-01-25T12:01:35.955Z,4.63
2018-01-25T12:04:03.501Z,4.87
2018-01-25T12:06:31.015Z,5.10
2018-01-25T12:08:58.560Z,5.20
2018-01-25T12:11:27.508Z,4.87
2018-01-25T12:13:55.155Z,4.73
2018-01-25T12:16:22.876Z,4.73
2018-01-25T12:18:51.151Z,5.00
2018-01-25T12:21:18.688Z,5.03
2018-01-25T12:23:46.203Z,4.50
2018-01-25T12:26:18.214Z,5.20
2018-01-25T12:28:45.899Z,5.40
2018-01-25T12:31:14.176Z,4.93
2018-01-25T12:33:42.451Z,5.30
2018-01-25T12:36:10.756Z,5.17
2018-01-25T12:38:38.297Z,5.60
2018-01-25T12:41:06.712Z,5.30
2018-01-25T12:43:34.226Z,5.17
2018-01-25T12:46:02.523Z,5.23
2018-01-25T12:48:30.033Z,4.90
2018-01-25T12:50:57.537Z,5.00
2018-01-25T12:53:25.055Z,4.97
2018-01-25T12:55:52.560Z,4.40
2018-01-25T12:58:20.095Z,4.80
2018-01-25T13:00:50.062Z,4.50
2018-01-25T13:03:17.566Z,5.07
2018-01-25T13:05:45.878Z,5.10
2018-01-25T13:08:13.438Z,5.27
2018-01-25T13:10:40.945Z,5.57
2018-01-25T13:13:08.490Z,6.27
2018-01-25T13:15:36.631Z,5.60
2018-01-25T13:18:04.142Z,6.90
2018-01-25T13:20:31.647Z,6.17
2018-01-25T13:22:59.168Z,5.13
2018-01-25T13:25:28.232Z,6.07
2018-01-25T13:27:55.780Z,5.60
2018-01-25T13:30:23.648Z,6.20
2018-01-25T13:32:56.928Z,5.90
2018-01-25T13:35:24.433Z,5.20
2018-01-25T13:37:51.938Z,6.00
2018-01-25T13:40:20.277Z,5.23
2018-01-25T13:42:48.556Z,5.17
2018-01-25T13:45:16.843Z,5.40
2018-01-25T13:47:45.838Z,4.57
2018-01-25T13:50:14.210Z,5.10
2018-01-25T13:52:53.111Z,5.20
2018-01-25T13:55:20.644Z,5.43
2018-01-25T13:57:48.398Z,5.17
2018-01-25T14:00:15.900Z,5.17
2018-01-25T14:02:43.467Z,4.90
2018-01-25T14:05:10.981Z,4.80
2018-01-25T14:07:38.647Z,5.03
2018-01-25T14:10:06.161Z,5.37
2018-01-25T14:12:34.440Z,4.53
2018-01-25T14:15:02.741Z,5.60
2018-01-25T14:17:31.583Z,4.83
2018-01-25T14:19:59.919Z,5.40
2018-01-25T14:22:27.890Z,5.80
2018-01-25T14:24:55.408Z,5.80
2018-01-25T14:27:24.126Z,5.90
2018-01-25T14:29:51.889Z,5.60
2018-01-25T14:32:19.767Z,5.33
2018-01-25T14:34:47.307Z,5.47
2018-01-25T14:37:15.423Z,6.13
2018-01-25T14:39:42.997Z,6.30
2018-01-25T14:42:10.488Z,5.53
2018-01-25T14:44:38.812Z,5.47
2018-01-25T14:47:06.526Z,6.00
2018-01-25T14:49:35.155Z,5.57
2018-01-25T14:52:03.780Z,5.70
2018-01-25T14:54:32.081Z,6.78
2018-01-25T14:56:59.635Z,5.57
2018-01-25T14:59:28.797Z,6.13
2018-01-25T15:01:56.523Z,5.27
2018-01-25T15:04:24.078Z,5.93
2018-01-25T15:06:51.592Z,6.10
2018-01-25T15:09:21.851Z,5.33
2018-01-25T15:11:49.366Z,5.93
2018-01-25T15:14:16.903Z,6.23
2018-01-25T15:16:44.420Z,6.23
2018-01-25T15:19:12.019Z,5.70
2018-01-25T15:21:39.535Z,6.93
2018-01-25T15:24:07.070Z,6.78
2018-01-25T15:26:35.382Z,6.17
2018-01-25T15:29:03.761Z,6.20
2018-01-25T15:31:31.277Z,6.20
2018-01-25T15:33:58.807Z,6.90
2018-01-25T15:36:26.334Z,6.77
2018-01-25T15:38:53.840Z,6.70
2018-01-25T15:41:21.799Z,6.73
2018-01-25T15:43:49.320Z,6.77
2018-01-25T15:46:17.955Z,6.53
2018-01-25T15:48:45.804Z,6.03
2018-01-25T15:51:13.315Z,6.17
2018-01-25T15:53:42.044Z,6.70
2018-01-25T15:56:10.631Z,6.30
2018-01-25T15:58:38.159Z,6.53
2018-01-25T16:01:05.680Z,7.80
2018-01-25T16:03:33.407Z,7.20
2018-01-25T16:06:00.954Z,6.90
2018-01-25T16:08:28.916Z,6.23
2018-01-25T16:10:56.454Z,7.03
2018-01-25T16:13:24.768Z,7.53
2018-01-25T16:15:52.358Z,8.50
2018-01-25T16:18:20.686Z,8.43
2018-01-25T16:20:48.250Z,8.30
2018-01-25T16:23:15.975Z,8.37
2018-01-25T16:25:43.492Z,8.27
2018-01-25T16:31:03.971Z,9.67
2018-01-25T16:33:32.264Z,8.57
2018-01-25T16:35:59.801Z,8.83
2018-01-25T16:38:28.097Z,9.33
2018-01-25T16:40:55.639Z,8.63
2018-01-25T16:43:23.916Z,8.90
2018-01-25T16:45:52.199Z,8.90
2018-01-25T16:48:21.731Z,8.27
2018-01-25T16:50:49.571Z,8.30
2018-01-25T16:53:17.870Z,8.70
2018-01-25T16:55:45.413Z,8.87
2018-01-25T16:58:12.959Z,9.97
2018-01-25T17:00:41.259Z,10.07
2018-01-25T17:03:08.775Z,9.27
2018-01-25T17:05:36.874Z,9.47
2018-01-25T17:08:05.153Z,10.03
2018-01-25T17:10:33.440Z,10.63
2018-01-25T17:13:00.958Z,10.63
2018-01-25T17:15:29.188Z,10.37
2018-01-25T17:17:56.744Z,10.10
2018-01-25T17:20:24.285Z,10.50
2018-01-25T17:22:51.851Z,9.57
2018-01-25T17:25:19.370Z,9.77
2018-01-25T17:27:47.689Z,9.83
2018-01-25T17:30:15.204Z,9.90
2018-01-25T17:32:42.879Z,9.97
2018-01-25T17:35:10.419Z,10.43
2018-01-25T17:37:37.926Z,10.00
2018-01-25T17:40:05.477Z,10.40
2018-01-25T17:42:33.803Z,9.73
2018-01-25T17:45:01.911Z,10.57
2018-01-25T17:47:36.948Z,9.57
2018-01-25T17:50:07.176Z,10.10
2018-01-25T17:52:35.456Z,10.87
2018-01-25T17:55:03.743Z,11.23
2018-01-25T17:57:31.267Z,11.70
2018-01-25T17:59:58.821Z,11.60
2018-01-25T18:02:26.363Z,11.90
2018-01-25T18:04:54.639Z,11.77
2018-01-25T18:07:22.382Z,10.97
2018-01-25T18:09:49.896Z,11.47
2018-01-25T18:12:18.222Z,11.60
2018-01-25T18:14:46.278Z,12.67
2018-01-25T18:17:13.825Z,13.43
2018-01-25T18:19:42.106Z,13.03
2018-01-25T18:22:09.652Z,12.93
2018-01-25T18:24:37.959Z,12.63
2018-01-25T18:27:05.495Z,12.60
2018-01-25T18:29:33.779Z,11.67
2018-01-25T18:32:02.227Z,11.87
2018-01-25T18:34:29.776Z,11.90
2018-01-25T18:36:57.340Z,11.60
2018-01-25T18:39:24.876Z,12.30
2018-01-25T18:41:53.246Z,11.53
2018-01-25T18:44:20.762Z,10.47
2018-01-25T18:46:49.060Z,11.73
2018-01-25T18:49:16.576Z,13.07
2018-01-25T18:51:44.110Z,13.07
2018-01-25T18:54:13.064Z,14.53
2018-01-25T18:56:44.175Z,14.57
2018-01-25T18:59:11.711Z,14.77
2018-01-25T19:01:39.811Z,15.23
2018-01-25T19:04:08.819Z,15.30
2018-01-25T19:06:40.773Z,15.13
2018-01-25T19:09:09.043Z,16.23
2018-01-25T19:11:38.091Z,18.27
2018-01-25T19:14:05.650Z,16.30
2018-01-25T19:16:33.383Z,17.40
2018-01-25T19:19:01.696Z,27.47
2018-01-25T19:21:29.270Z,21.67
2018-01-25T19:23:56.807Z,27.10
2018-01-25T19:26:29.171Z,25.07
2018-01-25T19:28:56.687Z,22.57
2018-01-25T19:31:24.225Z,18.23
2018-01-25T19:33:51.777Z,17.90
2018-01-25T19:36:19.322Z,23.53
2018-01-25T19:38:46.864Z,21.77
2018-01-25T19:41:14.803Z,18.47
2018-01-25T19:43:43.165Z,16.57
2018-01-25T19:46:16.220Z,17.73
2018-01-25T19:48:43.761Z,17.60
2018-01-25T19:51:11.430Z,19.27
2018-01-25T19:53:38.961Z,18.00
2018-01-25T19:56:07.274Z,18.27
2018-01-25T19:58:34.804Z,17.20
2018-01-25T20:01:03.559Z,17.60
2018-01-25T20:03:31.105Z,18.13
2018-01-25T20:05:58.956Z,18.53
2018-01-25T20:08:26.496Z,17.10
2018-01-25T20:11:01.416Z,16.87
2018-01-25T20:13:29.796Z,16.30
2018-01-25T20:15:57.904Z,17.13
2018-01-25T20:18:25.418Z,20.47
2018-01-25T20:20:53.271Z,18.00
2018-01-25T20:23:21.547Z,17.40
2018-01-25T20:25:49.852Z,16.77
2018-01-25T20:28:18.647Z,17.37
2018-01-25T20:30:46.199Z,17.10
2018-01-25T20:33:13.771Z,17.93
2018-01-25T20:35:41.879Z,18.33
2018-01-25T20:38:09.420Z,18.57
2018-01-25T20:40:37.495Z,16.70
2018-01-25T20:43:05.695Z,15.77
2018-01-25T20:45:33.448Z,15.17
2018-01-25T20:48:01.003Z,14.97
2018-01-25T20:50:28.750Z,18.37
2018-01-25T20:52:56.732Z,17.10
2018-01-25T20:55:24.263Z,15.97
2018-01-25T20:57:51.775Z,18.27
2018-01-25T21:00:19.287Z,17.53
2018-01-25T21:02:53.701Z,17.20
2018-01-25T21:05:21.223Z,16.97
2018-01-25T21:07:49.535Z,17.83
2018-01-25T21:10:17.814Z,17.50
2018-01-25T21:12:45.367Z,17.27
2018-01-25T21:15:13.108Z,19.83
2018-01-25T21:17:41.745Z,18.17
2018-01-25T21:20:09.266Z,18.53
2018-01-25T21:22:37.050Z,17.93
2018-01-25T21:25:04.637Z,17.60
2018-01-25T21:27:32.149Z,14.07
2018-01-25T21:29:59.695Z,14.00
2018-01-25T21:32:28.001Z,15.30
2018-01-25T21:34:55.551Z,13.93
2018-01-25T21:37:23.064Z,14.03
2018-01-25T21:39:50.579Z,13.40
2018-01-25T21:42:18.250Z,13.37
2018-01-25T21:44:45.759Z,14.90
2018-01-25T21:47:14.053Z,13.17
2018-01-25T21:49:46.645Z,15.80
2018-01-25T21:52:14.172Z,14.87
2018-01-25T21:54:41.727Z,15.33
2018-01-25T21:57:10.012Z,12.90
2018-01-25T21:59:38.330Z,14.00
2018-01-25T22:02:05.851Z,14.90
2018-01-25T22:04:34.496Z,13.73
2018-01-25T22:07:02.388Z,13.07
2018-01-25T22:09:29.904Z,12.93
2018-01-25T22:11:58.042Z,12.23
2018-01-25T22:14:26.367Z,11.43
2018-01-25T22:16:54.399Z,10.47
2018-01-25T22:19:21.924Z,11.03
2018-01-25T22:21:49.479Z,10.60
2018-01-25T22:24:17.020Z,10.03
2018-01-25T22:26:44.529Z,10.47
2018-01-25T22:29:12.816Z,11.90
2018-01-25T22:31:40.359Z,10.70
2018-01-25T22:34:08.656Z,10.83
2018-01-25T22:36:36.175Z,9.67
2018-01-25T22:39:03.715Z,11.57
2018-01-25T22:41:31.256Z,11.27
2018-01-25T22:43:59.582Z,10.53
2018-01-25T22:46:27.123Z,12.07
2018-01-25T22:48:57.251Z,12.43
2018-01-25T22:51:24.766Z,13.30
2018-01-25T22:53:52.896Z,13.73
2018-01-25T22:56:22.087Z,13.93
2018-01-25T22:58:50.312Z,12.40
2018-01-25T23:01:18.637Z,13.73
2018-01-25T23:03:46.150Z,13.93
2018-01-25T23:06:13.697Z,13.70
2018-01-25T23:08:41.248Z,11.60
2018-01-25T23:11:08.792Z,11.33
2018-01-25T23:13:37.085Z,11.60
2018-01-25T23:16:05.184Z,12.13
2018-01-25T23:18:32.704Z,12.40
2018-01-25T23:21:01.345Z,11.80
2018-01-25T23:23:28.857Z,11.37
2018-01-25T23:25:56.383Z,12.87
2018-01-25T23:28:24.533Z,13.57
2018-01-25T23:30:52.077Z,11.80
2018-01-25T23:33:19.963Z,12.57
2018-01-25T23:35:47.707Z,11.43
2018-01-25T23:38:15.235Z,12.73
2018-01-25T23:40:43.511Z,13.83
2018-01-25T23:43:12.640Z,12.97
2018-01-25T23:45:40.911Z,13.17
2018-01-25T23:48:09.263Z,13.23
2018-01-25T23:50:37.571Z,13.50
2018-01-25T23:53:05.416Z,14.07
2018-01-25T23:55:32.958Z,15.30
2018-01-25T23:58:01.600Z,15.27
